Hagerstown Regional Richard A Henson Field
KHGR : now visible

Airfield :











YOU CAN JOIN US ON...

 
LOGIN :

Register | Disclaimer

   EN    FR    IT 

 









Legend :    VFR   Marginal VFR   IFR   Intensive IFR   Very Intensive IFR
Visi :
Ceiling :
>= 8 km
>= 3000ft
5 to 8 km
1000 to 3000 ft
1500m to 5 km
500 to 1000 ft
800 to 1500m
200 to 500 ft
< 800m
< 200 ft
Symbols :   Thunderstorms  Fog  Heavy snow  Heavy precipitations  Wind > 20 kt






- Airport Elevation : 703 ft
- IATA code : HGR


KHGR - Hagerstown Regional Richard A Henson Field

CURRENT METAR :
  • 061153Z 20004KT 10SM CLR 23/20 A2989 RMK AO2 SLP125 T02280200 10228 20200 51004

EXPIRED METARs :
  • 061059Z 17003KT 4SM BR SCT002 21/20 A2988 RMK AO2 T02060200
  • 061049Z 16003KT 1 1/2SM BR BKN002 21/20 A2988 RMK AO2
  • 061040Z AUTO 18003KT 3/4SM BR OVC002 20/20 A2989 RMK AO2 T02000200
  • 060953Z AUTO 00000KT 1/4SM FG OVC002 20/20 A2988 RMK AO2 SLP121 T02000200
  • 060945Z AUTO 21003KT 1/2SM FG OVC002 20/20 A2987 RMK AO2 T02000200
  • 060935Z AUTO 20004KT 1 1/2SM BR OVC002 21/20 A2987 RMK AO2 T02060200
  • 060912Z AUTO 18004KT 2SM BR OVC002 21/20 A2987 RMK AO2 T02060200

TAF N/A
KZDC FIR / North America



MET'MAP, your aeronautical weather chart ! - Copyright ORBIFLY December 2007 - Disclaimer

ORBIFLY MET'MAP TEAM :

Programming & Development : Alexandra Zaïnal
Concept & original design : Baudouin d'Aumeries
Assistance for programming : Marc-Olivier Méhu
Technical & hardware support : Manuel Goepfert

Contact : metmap@orbifly.com




SOURCES & CREDITS :

   NOAA       Earth
Advisory